sensor_id;sensor_type;location;lat;lon;timestamp;pressure;altitude;pressure_sealevel;temperature;humidity
63554;BME280;49699;48.072;7.800;2022-11-09T00:01:13;99019.47;;;10.26;81.75
63554;BME280;49699;48.072;7.800;2022-11-09T00:03:38;99018.06;;;10.34;81.40
63554;BME280;49699;48.072;7.800;2022-11-09T00:06:03;99012.38;;;10.42;80.96
63554;BME280;49699;48.072;7.800;2022-11-09T00:08:28;99016.16;;;10.51;80.51
63554;BME280;49699;48.072;7.800;2022-11-09T00:10:54;99018.25;;;10.58;80.19
63554;BME280;49699;48.072;7.800;2022-11-09T00:13:19;99009.22;;;10.64;80.36
63554;BME280;49699;48.072;7.800;2022-11-09T00:15:45;99005.59;;;10.66;80.02
63554;BME280;49699;48.072;7.800;2022-11-09T00:18:10;99008.84;;;10.70;79.96
63554;BME280;49699;48.072;7.800;2022-11-09T00:20:35;99014.78;;;10.72;80.05
63554;BME280;49699;48.072;7.800;2022-11-09T00:23:01;99023.63;;;10.69;80.23
63554;BME280;49699;48.072;7.800;2022-11-09T00:25:26;99015.91;;;10.68;80.40
63554;BME280;49699;48.072;7.800;2022-11-09T00:27:52;99014.13;;;10.68;80.61
63554;BME280;49699;48.072;7.800;2022-11-09T00:30:17;99016.75;;;10.68;80.58
63554;BME280;49699;48.072;7.800;2022-11-09T00:32:45;99029.75;;;10.68;80.70
63554;BME280;49699;48.072;7.800;2022-11-09T00:35:12;99024.56;;;10.68;80.58
63554;BME280;49699;48.072;7.800;2022-11-09T00:37:37;99037.56;;;10.68;81.18
63554;BME280;49699;48.072;7.800;2022-11-09T00:40:03;99041.84;;;10.69;81.00
63554;BME280;49699;48.072;7.800;2022-11-09T00:42:28;99051.31;;;10.70;81.21
63554;BME280;49699;48.072;7.800;2022-11-09T00:44:53;99046.13;;;10.70;81.01
63554;BME280;49699;48.072;7.800;2022-11-09T00:47:19;99041.75;;;10.71;81.17
63554;BME280;49699;48.072;7.800;2022-11-09T00:49:45;99051.22;;;10.72;81.28
63554;BME280;49699;48.072;7.800;2022-11-09T00:52:10;99058.94;;;10.73;81.27
63554;BME280;49699;48.072;7.800;2022-11-09T00:54:35;99061.31;;;10.76;81.11
63554;BME280;49699;48.072;7.800;2022-11-09T00:57:01;99064.66;;;10.78;80.95
63554;BME280;49699;48.072;7.800;2022-11-09T00:59:27;99081.75;;;10.83;80.80
63554;BME280;49699;48.072;7.800;2022-11-09T01:01:52;99080.63;;;10.87;80.83
63554;BME280;49699;48.072;7.800;2022-11-09T01:04:17;99086.38;;;10.92;80.63
63554;BME280;49699;48.072;7.800;2022-11-09T01:06:43;99080.97;;;10.95;80.85
63554;BME280;49699;48.072;7.800;2022-11-09T01:09:08;99076.69;;;10.94;80.99
63554;BME280;49699;48.072;7.800;2022-11-09T01:11:35;99069.00;;;10.92;81.07
63554;BME280;49699;48.072;7.800;2022-11-09T01:14:01;99075.84;;;10.93;81.34
63554;BME280;49699;48.072;7.800;2022-11-09T01:16:27;99069.81;;;10.93;81.36
63554;BME280;49699;48.072;7.800;2022-11-09T01:18:56;99072.41;;;10.93;81.55
63554;BME280;49699;48.072;7.800;2022-11-09T01:21:23;99075.84;;;10.93;81.56
63554;BME280;49699;48.072;7.800;2022-11-09T01:23:49;99080.97;;;10.95;81.74
63554;BME280;49699;48.072;7.800;2022-11-09T01:26:15;99075.00;;;10.93;82.06
63554;BME280;49699;48.072;7.800;2022-11-09T01:28:41;99077.84;;;10.90;82.84
63554;BME280;49699;48.072;7.800;2022-11-09T01:31:09;99078.88;;;10.87;82.91
63554;BME280;49699;48.072;7.800;2022-11-09T01:33:35;99075.44;;;10.87;83.42
63554;BME280;49699;48.072;7.800;2022-11-09T01:36:02;99080.91;;;10.82;83.98
63554;BME280;49699;48.072;7.800;2022-11-09T01:38:29;99086.13;;;10.82;83.72
63554;BME280;49699;48.072;7.800;2022-11-09T01:40:55;99087.91;;;10.82;83.90
63554;BME280;49699;48.072;7.800;2022-11-09T01:43:21;99094.03;;;10.81;84.02
63554;BME280;49699;48.072;7.800;2022-11-09T01:48:46;99098.31;;;10.82;84.59
63554;BME280;49699;48.072;7.800;2022-11-09T01:51:23;99090.59;;;10.80;84.63
63554;BME280;49699;48.072;7.800;2022-11-09T01:53:50;99102.59;;;10.83;84.79
63554;BME280;49699;48.072;7.800;2022-11-09T01:56:17;99099.97;;;10.83;84.92
63554;BME280;49699;48.072;7.800;2022-11-09T01:58:44;99096.44;;;10.84;85.01
63554;BME280;49699;48.072;7.800;2022-11-09T02:01:11;99100.81;;;10.83;84.94
63554;BME280;49699;48.072;7.800;2022-11-09T02:03:39;99100.81;;;10.83;85.00
63554;BME280;49699;48.072;7.800;2022-11-09T02:06:07;99108.63;;;10.83;85.26
63554;BME280;49699;48.072;7.800;2022-11-09T02:08:34;99098.22;;;10.83;85.18
63554;BME280;49699;48.072;7.800;2022-11-09T02:11:03;99100.81;;;10.83;85.40
63554;BME280;49699;48.072;7.800;2022-11-09T02:13:30;99102.50;;;10.84;85.55
63554;BME280;49699;48.072;7.800;2022-11-09T02:16:01;99099.97;;;10.83;85.93
63554;BME280;49699;48.072;7.800;2022-11-09T02:18:27;99098.22;;;10.83;85.93
63554;BME280;49699;48.072;7.800;2022-11-09T02:20:53;99099.97;;;10.83;86.00
63554;BME280;49699;48.072;7.800;2022-11-09T02:23:21;99099.06;;;10.84;86.00
63554;BME280;49699;48.072;7.800;2022-11-09T02:25:57;99101.66;;;10.84;85.91
63554;BME280;49699;48.072;7.800;2022-11-09T02:28:24;99105.94;;;10.85;86.42
63554;BME280;49699;48.072;7.800;2022-11-09T02:30:50;99093.94;;;10.82;86.46
63554;BME280;49699;48.072;7.800;2022-11-09T02:33:18;99091.34;;;10.82;86.97
63554;BME280;49699;48.072;7.800;2022-11-09T02:35:43;99087.91;;;10.82;86.90
63554;BME280;49699;48.072;7.800;2022-11-09T02:38:09;99089.66;;;10.81;86.96
63554;BME280;49699;48.072;7.800;2022-11-09T02:40:35;99094.78;;;10.83;87.28
63554;BME280;49699;48.072;7.800;2022-11-09T02:43:04;99094.78;;;10.83;87.60
63554;BME280;49699;48.072;7.800;2022-11-09T02:45:31;99086.97;;;10.83;87.52
63554;BME280;49699;48.072;7.800;2022-11-09T02:47:57;99089.56;;;10.83;87.47
63554;BME280;49699;48.072;7.800;2022-11-09T02:50:22;99090.41;;;10.83;87.49
63554;BME280;49699;48.072;7.800;2022-11-09T02:52:48;99102.59;;;10.83;87.47
63554;BME280;49699;48.072;7.800;2022-11-09T02:55:13;99100.91;;;10.82;87.97
63554;BME280;49699;48.072;7.800;2022-11-09T02:57:39;99100.91;;;10.82;87.89
63554;BME280;49699;48.072;7.800;2022-11-09T03:00:05;99106.22;;;10.80;87.88
63554;BME280;49699;48.072;7.800;2022-11-09T03:02:30;99107.16;;;10.79;88.07
63554;BME280;49699;48.072;7.800;2022-11-09T03:04:56;99107.97;;;10.79;88.17
63554;BME280;49699;48.072;7.800;2022-11-09T03:07:21;99120.81;;;10.83;88.34
63554;BME280;49699;48.072;7.800;2022-11-09T03:09:47;99119.13;;;10.82;88.15
63554;BME280;49699;48.072;7.800;2022-11-09T03:12:12;99124.34;;;10.82;88.14
63554;BME280;49699;48.072;7.800;2022-11-09T03:14:54;99128.63;;;10.83;88.60
63554;BME280;49699;48.072;7.800;2022-11-09T03:17:20;99131.13;;;10.84;88.34
63554;BME280;49699;48.072;7.800;2022-11-09T03:19:45;99128.53;;;10.84;88.54
63554;BME280;49699;48.072;7.800;2022-11-09T03:22:11;99129.34;;;10.85;88.29
63554;BME280;49699;48.072;7.800;2022-11-09T03:24:37;99124.06;;;10.86;88.63
63554;BME280;49699;48.072;7.800;2022-11-09T03:27:03;99134.47;;;10.86;88.61
63554;BME280;49699;48.072;7.800;2022-11-09T03:29:28;99130.94;;;10.87;88.58
63554;BME280;49699;48.072;7.800;2022-11-09T03:31:53;99130.00;;;10.88;88.51
63554;BME280;49699;48.072;7.800;2022-11-09T03:34:19;99136.03;;;10.89;88.66
63554;BME280;49699;48.072;7.800;2022-11-09T03:36:44;99136.03;;;10.89;88.62
63554;BME280;49699;48.072;7.800;2022-11-09T03:39:10;99124.78;;;10.88;88.73
63554;BME280;49699;48.072;7.800;2022-11-09T03:41:36;99127.31;;;10.90;88.88
63554;BME280;49699;48.072;7.800;2022-11-09T03:44:01;99125.53;;;10.90;88.94
63554;BME280;49699;48.072;7.800;2022-11-09T03:46:26;99118.47;;;10.92;89.08
63554;BME280;49699;48.072;7.800;2022-11-09T03:48:52;99115.53;;;10.97;89.12
63554;BME280;49699;48.072;7.800;2022-11-09T03:51:17;99122.97;;;11.03;89.08
63554;BME280;49699;48.072;7.800;2022-11-09T03:53:42;99108.09;;;11.05;89.00
63554;BME280;49699;48.072;7.800;2022-11-09T03:56:07;99106.03;;;11.10;89.17
63554;BME280;49699;48.072;7.800;2022-11-09T03:58:33;99110.91;;;11.14;89.08
63554;BME280;49699;48.072;7.800;2022-11-09T04:00:58;99108.84;;;11.20;89.37
63554;BME280;49699;48.072;7.800;2022-11-09T04:03:23;99105.88;;;11.26;89.18
63554;BME280;49699;48.072;7.800;2022-11-09T04:05:49;99111.50;;;11.32;89.12
63554;BME280;49699;48.072;7.800;2022-11-09T04:08:14;99107.00;;;11.34;89.23
63554;BME280;49699;48.072;7.800;2022-11-09T04:10:39;99109.22;;;11.40;89.29
63554;BME280;49699;48.072;7.800;2022-11-09T04:13:04;99101.94;;;11.45;89.01
63554;BME280;49699;48.072;7.800;2022-11-09T04:15:30;99106.72;;;11.52;89.08
63554;BME280;49699;48.072;7.800;2022-11-09T04:17:56;99101.22;;;11.56;89.23
63554;BME280;49699;48.072;7.800;2022-11-09T04:20:21;99101.66;;;11.63;89.18
63554;BME280;49699;48.072;7.800;2022-11-09T04:22:52;99089.13;;;11.68;89.41
63554;BME280;49699;48.072;7.800;2022-11-09T04:25:17;99089.47;;;11.76;89.21
63554;BME280;49699;48.072;7.800;2022-11-09T04:27:43;99092.19;;;11.87;89.50
63554;BME280;49699;48.072;7.800;2022-11-09T04:30:08;99085.41;;;11.97;89.29
63554;BME280;49699;48.072;7.800;2022-11-09T04:32:34;99074.44;;;12.05;89.20
63554;BME280;49699;48.072;7.800;2022-11-09T04:34:59;99074.66;;;12.14;89.23
63554;BME280;49699;48.072;7.800;2022-11-09T04:37:24;99070.66;;;12.22;89.10
63554;BME280;49699;48.072;7.800;2022-11-09T04:39:50;99061.56;;;12.27;89.01
63554;BME280;49699;48.072;7.800;2022-11-09T04:42:15;99071.69;;;12.32;88.88
63554;BME280;49699;48.072;7.800;2022-11-09T04:44:40;99073.00;;;12.37;88.91
63554;BME280;49699;48.072;7.800;2022-11-09T04:47:06;99069.34;;;12.40;88.87
63554;BME280;49699;48.072;7.800;2022-11-09T04:49:31;99066.53;;;12.43;88.84
63554;BME280;49699;48.072;7.800;2022-11-09T04:51:56;99066.22;;;12.47;88.76
63554;BME280;49699;48.072;7.800;2022-11-09T04:54:21;99065.91;;;12.52;88.69
63554;BME280;49699;48.072;7.800;2022-11-09T04:56:47;99072.53;;;12.56;88.67
63554;BME280;49699;48.072;7.800;2022-11-09T04:59:12;99068.88;;;12.59;88.55
63554;BME280;49699;48.072;7.800;2022-11-09T05:01:37;99072.13;;;12.62;88.45
63554;BME280;49699;48.072;7.800;2022-11-09T05:04:03;99076.28;;;12.65;88.23
63554;BME280;49699;48.072;7.800;2022-11-09T05:06:28;99072.75;;;12.66;88.33
63554;BME280;49699;48.072;7.800;2022-11-09T05:08:57;99071.69;;;12.68;88.24
63554;BME280;49699;48.072;7.800;2022-11-09T05:11:22;99067.09;;;12.72;88.15
63554;BME280;49699;48.072;7.800;2022-11-09T05:13:48;99054.72;;;12.74;87.97
63554;BME280;49699;48.072;7.800;2022-11-09T05:16:15;99059.84;;;12.75;87.85
63554;BME280;49699;48.072;7.800;2022-11-09T05:18:41;99071.13;;;12.76;87.83
63554;BME280;49699;48.072;7.800;2022-11-09T05:21:07;99072.78;;;12.77;87.74
63554;BME280;49699;48.072;7.800;2022-11-09T05:23:32;99074.56;;;12.76;87.76
63554;BME280;49699;48.072;7.800;2022-11-09T05:26:16;99081.66;;;12.74;87.77
63554;BME280;49699;48.072;7.800;2022-11-09T05:28:41;99080.13;;;12.72;87.97
63554;BME280;49699;48.072;7.800;2022-11-09T05:31:07;99081.28;;;12.68;88.06
63554;BME280;49699;48.072;7.800;2022-11-09T05:33:32;99095.41;;;12.65;88.22
63554;BME280;49699;48.072;7.800;2022-11-09T05:35:57;99100.84;;;12.62;88.41
63554;BME280;49699;48.072;7.800;2022-11-09T05:38:23;99101.25;;;12.56;88.51
63554;BME280;49699;48.072;7.800;2022-11-09T05:40:49;99099.59;;;12.55;88.74
63554;BME280;49699;48.072;7.800;2022-11-09T05:43:14;99104.94;;;12.54;88.69
63554;BME280;49699;48.072;7.800;2022-11-09T05:45:40;99094.63;;;12.52;88.79
63554;BME280;49699;48.072;7.800;2022-11-09T05:48:05;99106.84;;;12.51;88.70
63554;BME280;49699;48.072;7.800;2022-11-09T05:50:31;99113.00;;;12.50;88.86
63554;BME280;49699;48.072;7.800;2022-11-09T05:53:08;99113.00;;;12.50;88.94
63554;BME280;49699;48.072;7.800;2022-11-09T05:55:34;99113.09;;;12.49;88.85
63554;BME280;49699;48.072;7.800;2022-11-09T05:57:59;99107.16;;;12.47;88.89
63554;BME280;49699;48.072;7.800;2022-11-09T06:00:25;99115.91;;;12.46;89.04
63554;BME280;49699;48.072;7.800;2022-11-09T06:02:50;99112.56;;;12.44;89.21
63554;BME280;49699;48.072;7.800;2022-11-09T06:05:16;99110.91;;;12.43;89.03
63554;BME280;49699;48.072;7.800;2022-11-09T06:07:42;99117.16;;;12.40;89.19
63554;BME280;49699;48.072;7.800;2022-11-09T06:10:07;99134.59;;;12.40;89.28
63554;BME280;49699;48.072;7.800;2022-11-09T06:12:33;99134.59;;;12.40;89.26
63554;BME280;49699;48.072;7.800;2022-11-09T06:14:59;99127.50;;;12.42;89.33
63554;BME280;49699;48.072;7.800;2022-11-09T06:17:24;99132.72;;;12.42;89.02
63554;BME280;49699;48.072;7.800;2022-11-09T06:19:49;99124.78;;;12.43;89.22
63554;BME280;49699;48.072;7.800;2022-11-09T06:22:14;99134.28;;;12.44;89.10
63554;BME280;49699;48.072;7.800;2022-11-09T06:24:40;99141.19;;;12.45;89.05
63554;BME280;49699;48.072;7.800;2022-11-09T06:27:05;99136.69;;;12.47;88.95
63554;BME280;49699;48.072;7.800;2022-11-09T06:29:30;99139.31;;;12.47;88.95
63554;BME280;49699;48.072;7.800;2022-11-09T06:31:57;99138.38;;;12.48;88.90
63554;BME280;49699;48.072;7.800;2022-11-09T06:34:22;99148.69;;;12.50;88.81
63554;BME280;49699;48.072;7.800;2022-11-09T06:36:47;99146.81;;;12.52;88.63
63554;BME280;49699;48.072;7.800;2022-11-09T06:39:13;99141.25;;;12.57;88.45
63554;BME280;49699;48.072;7.800;2022-11-09T06:41:38;99152.94;;;12.64;88.18
63554;BME280;49699;48.072;7.800;2022-11-09T06:44:03;99157.00;;;12.68;87.90
63554;BME280;49699;48.072;7.800;2022-11-09T06:46:32;99169.72;;;12.72;87.62
63554;BME280;49699;48.072;7.800;2022-11-09T06:48:58;99179.03;;;12.76;87.33
63554;BME280;49699;48.072;7.800;2022-11-09T06:51:23;99191.75;;;12.81;87.15
63554;BME280;49699;48.072;7.800;2022-11-09T06:53:48;99208.78;;;12.86;86.58
63554;BME280;49699;48.072;7.800;2022-11-09T06:56:14;99217.47;;;12.87;86.56
63554;BME280;49699;48.072;7.800;2022-11-09T06:58:39;99211.50;;;12.85;86.57
63554;BME280;49699;48.072;7.800;2022-11-09T07:01:08;99218.09;;;12.78;86.88
63554;BME280;49699;48.072;7.800;2022-11-09T07:03:34;99218.75;;;12.69;87.05
63554;BME280;49699;48.072;7.800;2022-11-09T07:06:02;99217.59;;;12.60;87.56
63554;BME280;49699;48.072;7.800;2022-11-09T07:08:28;99224.28;;;12.51;87.88
63554;BME280;49699;48.072;7.800;2022-11-09T07:10:53;99221.25;;;12.45;88.26
63554;BME280;49699;48.072;7.800;2022-11-09T07:13:19;99220.63;;;12.41;88.52
63554;BME280;49699;48.072;7.800;2022-11-09T07:15:44;99232.94;;;12.39;88.67
63554;BME280;49699;48.072;7.800;2022-11-09T07:18:09;99246.34;;;12.35;88.77
63554;BME280;49699;48.072;7.800;2022-11-09T07:20:36;99244.03;;;12.30;88.97
63554;BME280;49699;48.072;7.800;2022-11-09T07:23:02;99232.84;;;12.28;89.10
63554;BME280;49699;48.072;7.800;2022-11-09T07:25:27;99227.84;;;12.25;89.37
63554;BME280;49699;48.072;7.800;2022-11-09T07:27:52;99223.75;;;12.21;89.66
63554;BME280;49699;48.072;7.800;2022-11-09T07:30:18;99236.19;;;12.18;89.90
63554;BME280;49699;48.072;7.800;2022-11-09T07:32:43;99226.78;;;12.15;89.99
63554;BME280;49699;48.072;7.800;2022-11-09T07:35:08;99235.56;;;12.14;90.21
63554;BME280;49699;48.072;7.800;2022-11-09T07:37:34;99236.50;;;12.13;90.41
63554;BME280;49699;48.072;7.800;2022-11-09T07:39:59;99228.56;;;12.14;90.40
63554;BME280;49699;48.072;7.800;2022-11-09T07:42:24;99229.19;;;12.18;90.24
63554;BME280;49699;48.072;7.800;2022-11-09T07:44:50;99240.97;;;12.24;90.14
63554;BME280;49699;48.072;7.800;2022-11-09T07:47:17;99229.31;;;12.29;89.91
63554;BME280;49699;48.072;7.800;2022-11-09T07:49:42;99216.88;;;12.33;89.82
63554;BME280;49699;48.072;7.800;2022-11-09T07:52:08;99204.34;;;12.38;89.67
63554;BME280;49699;48.072;7.800;2022-11-09T07:54:33;99201.41;;;12.42;89.61
63554;BME280;49699;48.072;7.800;2022-11-09T07:56:59;99208.09;;;12.46;89.54
63554;BME280;49699;48.072;7.800;2022-11-09T07:59:24;99203.41;;;12.51;89.37
63554;BME280;49699;48.072;7.800;2022-11-09T08:01:49;99203.91;;;12.57;89.20
63554;BME280;49699;48.072;7.800;2022-11-09T08:04:14;99214.66;;;12.65;89.05
63554;BME280;49699;48.072;7.800;2022-11-09T08:06:40;99215.09;;;12.71;88.88
63554;BME280;49699;48.072;7.800;2022-11-09T08:09:05;99215.47;;;12.78;88.58
63554;BME280;49699;48.072;7.800;2022-11-09T08:11:31;99228.84;;;12.86;88.40
63554;BME280;49699;48.072;7.800;2022-11-09T08:13:56;99229.34;;;12.91;88.38
63554;BME280;49699;48.072;7.800;2022-11-09T08:16:21;99227.25;;;12.96;88.36
63554;BME280;49699;48.072;7.800;2022-11-09T08:18:48;99236.66;;;12.99;88.70
63554;BME280;49699;48.072;7.800;2022-11-09T08:21:13;99241.66;;;13.02;88.61
63554;BME280;49699;48.072;7.800;2022-11-09T08:23:38;99237.28;;;13.02;88.59
63554;BME280;49699;48.072;7.800;2022-11-09T08:26:04;99243.00;;;13.07;88.81
63554;BME280;49699;48.072;7.800;2022-11-09T08:28:30;99233.97;;;13.11;88.61
63554;BME280;49699;48.072;7.800;2022-11-09T08:30:57;99234.53;;;13.16;88.49
63554;BME280;49699;48.072;7.800;2022-11-09T08:33:23;99232.53;;;13.20;88.63
63554;BME280;49699;48.072;7.800;2022-11-09T08:35:48;99221.97;;;13.22;88.65
63554;BME280;49699;48.072;7.800;2022-11-09T08:38:13;99213.94;;;13.25;88.74
63554;BME280;49699;48.072;7.800;2022-11-09T08:40:39;99220.56;;;13.29;88.59
63554;BME280;49699;48.072;7.800;2022-11-09T08:43:04;99220.16;;;13.35;88.58
63554;BME280;49699;48.072;7.800;2022-11-09T08:45:31;99215.81;;;13.46;88.15
63554;BME280;49699;48.072;7.800;2022-11-09T08:47:57;99214.56;;;13.63;87.67
63554;BME280;49699;48.072;7.800;2022-11-09T08:50:23;99220.69;;;13.75;87.18
63554;BME280;49699;48.072;7.800;2022-11-09T08:52:49;99222.59;;;13.84;86.69
63554;BME280;49699;48.072;7.800;2022-11-09T08:55:14;99217.88;;;13.89;86.51
63554;BME280;49699;48.072;7.800;2022-11-09T08:57:39;99224.44;;;13.95;86.30
63554;BME280;49699;48.072;7.800;2022-11-09T09:00:05;99223.50;;;13.96;86.31
63554;BME280;49699;48.072;7.800;2022-11-09T09:02:30;99231.09;;;13.99;86.30
63554;BME280;49699;48.072;7.800;2022-11-09T09:04:55;99210.03;;;14.00;86.34
63554;BME280;49699;48.072;7.800;2022-11-09T09:07:21;99222.91;;;14.03;86.36
63554;BME280;49699;48.072;7.800;2022-11-09T09:09:46;99223.41;;;14.08;86.35
63554;BME280;49699;48.072;7.800;2022-11-09T09:12:11;99221.97;;;14.15;86.34
63554;BME280;49699;48.072;7.800;2022-11-09T09:14:37;99223.19;;;14.22;86.05
63554;BME280;49699;48.072;7.800;2022-11-09T09:17:02;99218.22;;;14.31;85.87
63554;BME280;49699;48.072;7.800;2022-11-09T09:19:27;99220.22;;;14.38;85.68
63554;BME280;49699;48.072;7.800;2022-11-09T09:21:53;99220.63;;;14.45;85.18
63554;BME280;49699;48.072;7.800;2022-11-09T09:24:18;99221.81;;;14.52;85.11
63554;BME280;49699;48.072;7.800;2022-11-09T09:26:44;99222.19;;;14.58;84.92
63554;BME280;49699;48.072;7.800;2022-11-09T09:29:09;99225.28;;;14.64;84.75
63554;BME280;49699;48.072;7.800;2022-11-09T09:31:37;99218.03;;;14.67;84.57
63554;BME280;49699;48.072;7.800;2022-11-09T09:34:02;99228.84;;;14.74;84.31
63554;BME280;49699;48.072;7.800;2022-11-09T09:36:28;99225.03;;;14.78;84.23
63554;BME280;49699;48.072;7.800;2022-11-09T09:38:53;99227.31;;;14.82;83.82
63554;BME280;49699;48.072;7.800;2022-11-09T09:41:24;99224.31;;;14.87;83.60
63554;BME280;49699;48.072;7.800;2022-11-09T09:43:51;99234.44;;;14.91;83.36
63554;BME280;49699;48.072;7.800;2022-11-09T09:46:25;99224.66;;;14.93;83.18
63554;BME280;49699;48.072;7.800;2022-11-09T09:48:55;99238.50;;;14.96;83.01
63554;BME280;49699;48.072;7.800;2022-11-09T09:51:36;99241.00;;;14.97;83.09
63554;BME280;49699;48.072;7.800;2022-11-09T09:54:06;99234.81;;;14.98;82.82
63554;BME280;49699;48.072;7.800;2022-11-09T09:56:37;99241.81;;;14.98;82.97
63554;BME280;49699;48.072;7.800;2022-11-09T10:01:48;99240.88;;;14.99;82.71
63554;BME280;49699;48.072;7.800;2022-11-09T10:04:18;99246.84;;;15.01;82.64
63554;BME280;49699;48.072;7.800;2022-11-09T10:16:46;99248.13;;;15.06;81.94
63554;BME280;49699;48.072;7.800;2022-11-09T10:21:50;99256.81;;;15.07;81.87
63554;BME280;49699;48.072;7.800;2022-11-09T10:26:44;99247.28;;;15.06;81.74
63554;BME280;49699;48.072;7.800;2022-11-09T10:29:15;99249.91;;;15.06;81.74
63554;BME280;49699;48.072;7.800;2022-11-09T10:31:42;99241.19;;;15.05;81.65
63554;BME280;49699;48.072;7.800;2022-11-09T10:34:13;99240.53;;;15.03;81.61
63554;BME280;49699;48.072;7.800;2022-11-09T10:39:07;99230.88;;;15.04;80.56
63554;BME280;49699;48.072;7.800;2022-11-09T10:41:54;99243.81;;;15.05;80.25
63554;BME280;49699;48.072;7.800;2022-11-09T10:44:38;99238.47;;;15.07;79.65
63554;BME280;49699;48.072;7.800;2022-11-09T10:47:22;99242.75;;;15.08;79.37
63554;BME280;49699;48.072;7.800;2022-11-09T10:50:20;99243.72;;;15.07;79.39
63554;BME280;49699;48.072;7.800;2022-11-09T10:58:55;99241.59;;;15.01;78.64
63554;BME280;49699;48.072;7.800;2022-11-09T11:01:39;99238.25;;;14.99;78.64
63554;BME280;49699;48.072;7.800;2022-11-09T11:04:24;99239.44;;;14.94;78.79
63554;BME280;49699;48.072;7.800;2022-11-09T11:07:16;99239.69;;;14.91;78.88
63554;BME280;49699;48.072;7.800;2022-11-09T11:15:45;99234.34;;;14.82;78.92
63554;BME280;49699;48.072;7.800;2022-11-09T11:18:29;99236.34;;;14.78;79.13
63554;BME280;49699;48.072;7.800;2022-11-09T11:21:16;99231.13;;;14.78;79.29
63554;BME280;49699;48.072;7.800;2022-11-09T11:26:51;99232.19;;;14.76;79.38
63554;BME280;49699;48.072;7.800;2022-11-09T11:29:40;99230.53;;;14.75;79.45
63554;BME280;49699;48.072;7.800;2022-11-09T11:32:27;99226.22;;;14.74;79.61
63554;BME280;49699;48.072;7.800;2022-11-09T11:35:16;99229.69;;;14.74;79.77
63554;BME280;49699;48.072;7.800;2022-11-09T11:52:34;99215.75;;;14.74;80.51
63554;BME280;49699;48.072;7.800;2022-11-09T11:55:25;99216.47;;;14.76;80.57
63554;BME280;49699;48.072;7.800;2022-11-09T12:01:34;99210.03;;;14.80;80.61
63554;BME280;49699;48.072;7.800;2022-11-09T12:04:15;99213.38;;;14.82;81.01
63554;BME280;49699;48.072;7.800;2022-11-09T12:18:36;99210.75;;;15.04;81.01
63554;BME280;49699;48.072;7.800;2022-11-09T12:24:29;99223.69;;;15.17;80.66
63554;BME280;49699;48.072;7.800;2022-11-09T12:27:38;99218.22;;;15.20;80.73
63554;BME280;49699;48.072;7.800;2022-11-09T12:30:34;99220.00;;;15.19;80.80
63554;BME280;49699;48.072;7.800;2022-11-09T12:33:38;99220.94;;;15.18;80.97
63554;BME280;49699;48.072;7.800;2022-11-09T12:39:31;99219.75;;;15.11;81.21
63554;BME280;49699;48.072;7.800;2022-11-09T12:42:19;99223.69;;;15.06;81.47
63554;BME280;49699;48.072;7.800;2022-11-09T12:45:28;99227.53;;;15.02;81.61
63554;BME280;49699;48.072;7.800;2022-11-09T12:50:57;99231.09;;;14.89;81.52
63554;BME280;49699;48.072;7.800;2022-11-09T12:53:42;99238.75;;;14.81;81.65
63554;BME280;49699;48.072;7.800;2022-11-09T12:56:28;99229.81;;;14.73;81.92
63554;BME280;49699;48.072;7.800;2022-11-09T12:59:21;99236.38;;;14.67;82.22
63554;BME280;49699;48.072;7.800;2022-11-09T13:02:05;99239.44;;;14.61;82.28
63554;BME280;49699;48.072;7.800;2022-11-09T13:05:06;99241.81;;;14.53;82.63
63554;BME280;49699;48.072;7.800;2022-11-09T13:07:51;99238.84;;;14.46;82.79
63554;BME280;49699;48.072;7.800;2022-11-09T13:10:37;99239.38;;;14.39;83.01
63554;BME280;49699;48.072;7.800;2022-11-09T13:13:22;99244.63;;;14.28;83.29
63554;BME280;49699;48.072;7.800;2022-11-09T13:19:07;99255.31;;;14.13;83.90
63554;BME280;49699;48.072;7.800;2022-11-09T13:21:51;99253.97;;;14.08;84.21
63554;BME280;49699;48.072;7.800;2022-11-09T13:24:55;99253.47;;;14.03;84.51
63554;BME280;49699;48.072;7.800;2022-11-09T13:41:53;99273.25;;;13.83;85.39
63554;BME280;49699;48.072;7.800;2022-11-09T13:44:37;99272.63;;;13.79;85.54
63554;BME280;49699;48.072;7.800;2022-11-09T13:47:26;99273.00;;;13.75;85.68
63554;BME280;49699;48.072;7.800;2022-11-09T13:50:21;99281.06;;;13.72;85.90
63554;BME280;49699;48.072;7.800;2022-11-09T14:01:44;99286.25;;;13.61;86.49
63554;BME280;49699;48.072;7.800;2022-11-09T14:07:23;99296.19;;;13.55;86.83
63554;BME280;49699;48.072;7.800;2022-11-09T14:10:15;99301.53;;;13.54;87.03
63554;BME280;49699;48.072;7.800;2022-11-09T14:13:11;99302.69;;;13.50;87.16
63554;BME280;49699;48.072;7.800;2022-11-09T14:16:01;99308.03;;;13.48;87.25
63554;BME280;49699;48.072;7.800;2022-11-09T14:21:51;99324.88;;;13.44;87.66
63554;BME280;49699;48.072;7.800;2022-11-09T14:24:35;99331.28;;;13.40;87.89
63554;BME280;49699;48.072;7.800;2022-11-09T14:27:20;99326.28;;;13.37;87.96
63554;BME280;49699;48.072;7.800;2022-11-09T14:30:12;99329.81;;;13.36;88.16
63554;BME280;49699;48.072;7.800;2022-11-09T14:32:57;99335.06;;;13.36;88.16
63554;BME280;49699;48.072;7.800;2022-11-09T14:35:41;99324.69;;;13.35;88.28
63554;BME280;49699;48.072;7.800;2022-11-09T14:41:21;99333.47;;;13.34;88.36
63554;BME280;49699;48.072;7.800;2022-11-09T14:44:08;99333.47;;;13.34;88.50
63554;BME280;49699;48.072;7.800;2022-11-09T14:46:56;99336.09;;;13.34;88.45
63554;BME280;49699;48.072;7.800;2022-11-09T14:49:40;99334.53;;;13.31;88.52
63554;BME280;49699;48.072;7.800;2022-11-09T14:52:26;99347.69;;;13.30;88.56
63554;BME280;49699;48.072;7.800;2022-11-09T14:55:13;99337.34;;;13.28;88.76
63554;BME280;49699;48.072;7.800;2022-11-09T14:57:58;99339.22;;;13.26;89.01
63554;BME280;49699;48.072;7.800;2022-11-09T15:00:42;99347.22;;;13.25;89.12
63554;BME280;49699;48.072;7.800;2022-11-09T15:03:27;99345.66;;;13.22;89.27
63554;BME280;49699;48.072;7.800;2022-11-09T15:06:12;99341.34;;;13.21;89.34
63554;BME280;49699;48.072;7.800;2022-11-09T15:08:57;99345.84;;;13.19;89.26